Time;durP1;ratioP1;P1;durP2;ratioP2;P2;SDS_P1;SDS_P2;PMS_P1;PMS_P2;Temp;Humidity;BMP_temperature;BMP_pressure;BME280_temperature;BME280_humidity;BME280_pressure;Samples;Min_cycle;Max_cycle;Signal;HPM_P1;HPM_P2
2023/09/01 00:00:20;;;;;;;3.65;2.40;;;19.00;63.40;;;;;;5058300;28;20728;-40
2023/09/01 00:02:48;;;;;;;4.95;2.47;;;19.00;63.40;;;;;;5058355;28;20576;-40
2023/09/01 00:05:15;;;;;;;3.03;2.22;;;19.00;63.40;;;;;;5024498;28;20193;-40
2023/09/01 00:07:42;;;;;;;6.07;2.63;;;19.00;63.40;;;;;;5026572;28;20207;-40
2023/09/01 00:10:12;;;;;;;3.15;2.00;;;19.00;63.40;;;;;;5057848;28;20205;-38
2023/09/01 00:12:39;;;;;;;5.90;2.55;;;19.10;63.50;;;;;;5025314;28;20221;-38
2023/09/01 00:15:09;;;;;;;4.95;2.45;;;19.00;63.50;;;;;;5024661;28;20209;-39
2023/09/01 00:17:36;;;;;;;4.95;2.58;;;19.00;63.60;;;;;;5027186;28;20655;-39
2023/09/01 00:20:06;;;;;;;4.78;2.50;;;19.10;63.70;;;;;;5024211;28;20230;-39
2023/09/01 00:22:54;;;;;;;5.45;2.70;;;19.00;63.70;;;;;;5053659;28;20330;-39
2023/09/01 00:25:39;;;;;;;4.78;2.50;;;19.10;63.70;;;;;;5026813;28;20223;-40
2023/09/01 00:28:28;;;;;;;2.92;2.30;;;19.00;63.70;;;;;;5025341;28;20207;-39
2023/09/01 00:31:00;;;;;;;4.07;2.33;;;19.10;63.80;;;;;;5026089;28;20205;-39
2023/09/01 00:33:33;;;;;;;3.42;2.30;;;19.00;63.80;;;;;;5025007;28;20628;-39
2023/09/01 00:36:03;;;;;;;5.45;2.50;;;19.10;63.90;;;;;;5056979;28;20667;-39
2023/09/01 00:38:32;;;;;;;3.05;2.50;;;19.10;63.90;;;;;;5049929;28;20208;-39
2023/09/01 00:41:02;;;;;;;5.75;2.20;;;19.10;64.20;;;;;;5048179;28;20201;-38
2023/09/01 00:43:29;;;;;;;3.92;2.70;;;19.10;64.00;;;;;;5047822;28;20227;-40
2023/09/01 00:45:57;;;;;;;4.30;2.75;;;19.10;64.00;;;;;;5047615;28;20662;-39
2023/09/01 00:48:45;;;;;;;3.55;2.47;;;19.10;64.00;;;;;;5046949;28;20262;-38
2023/09/01 00:51:30;;;;;;;3.45;2.25;;;19.10;64.00;;;;;;5044594;28;20207;-40
2023/09/01 00:54:19;;;;;;;5.35;2.28;;;19.10;64.20;;;;;;5046510;28;20708;-39
2023/09/01 00:56:53;;;;;;;2.90;2.30;;;19.10;64.20;;;;;;5044739;28;20246;-40
2023/09/01 00:59:20;;;;;;;3.40;2.40;;;19.10;64.20;;;;;;5029124;28;20207;-38
2023/09/01 01:01:51;;;;;;;3.08;2.38;;;19.10;64.20;;;;;;5058377;28;20719;-39
2023/09/01 01:04:20;;;;;;;5.20;2.17;;;19.10;64.20;;;;;;5030960;28;20236;-39
2023/09/01 01:07:09;;;;;;;5.38;2.42;;;19.10;64.30;;;;;;5060364;28;20230;-40
2023/09/01 01:10:14;;;;;;;3.78;2.45;;;19.10;64.30;;;;;;5064276;28;20672;-41
2023/09/01 01:12:57;;;;;;;2.97;2.10;;;19.10;64.50;;;;;;5044289;28;20220;-40
2023/09/01 01:15:46;;;;;;;3.30;2.13;;;19.10;64.40;;;;;;5043873;28;20212;-40
2023/09/01 01:18:33;;;;;;;4.40;2.28;;;19.10;64.30;;;;;;5062086;28;20297;-39
2023/09/01 01:21:07;;;;;;;3.88;2.15;;;19.10;64.40;;;;;;5065435;28;20227;-39
2023/09/01 01:23:38;;;;;;;4.30;2.20;;;19.10;64.50;;;;;;5050877;28;20216;-39
2023/09/01 01:26:08;;;;;;;3.60;2.10;;;19.10;64.40;;;;;;5065742;28;20200;-39
2023/09/01 01:28:35;;;;;;;4.32;2.28;;;19.20;64.50;;;;;;5049284;28;20291;-40
2023/09/01 01:31:07;;;;;;;2.30;1.92;;;19.20;64.50;;;;;;5048907;28;20753;-40
2023/09/01 01:33:56;;;;;;;3.50;2.22;;;19.20;64.60;;;;;;5048441;28;20243;-40
2023/09/01 01:36:46;;;;;;;3.35;1.95;;;19.20;64.60;;;;;;5046834;28;20204;-40
2023/09/01 01:39:17;;;;;;;4.03;2.10;;;19.20;64.70;;;;;;5048920;28;20227;-39
2023/09/01 01:41:45;;;;;;;2.40;1.90;;;19.20;64.60;;;;;;5048628;28;20232;-40
2023/09/01 01:44:15;;;;;;;4.28;2.13;;;19.20;64.60;;;;;;5047417;28;20963;-38
2023/09/01 01:46:47;;;;;;;3.28;2.28;;;19.20;64.60;;;;;;5047621;28;20212;-39
2023/09/01 01:49:15;;;;;;;3.72;2.25;;;19.20;65.50;;;;;;5047531;28;20291;-39
2023/09/01 01:51:46;;;;;;;4.68;2.22;;;19.20;64.70;;;;;;5048118;28;20283;-39
2023/09/01 01:54:15;;;;;;;3.47;2.30;;;19.20;64.70;;;;;;5047172;28;20212;-40
2023/09/01 01:56:43;;;;;;;2.83;2.30;;;19.20;64.80;;;;;;5047568;28;20208;-40
2023/09/01 01:59:10;;;;;;;4.47;2.60;;;19.20;64.70;;;;;;5050989;28;20285;-39
2023/09/01 02:01:38;;;;;;;5.22;2.67;;;19.30;65.50;;;;;;5087002;28;20245;-39
2023/09/01 02:04:06;;;;;;;2.63;2.28;;;19.30;64.80;;;;;;5054560;28;20223;-39
2023/09/01 02:06:35;;;;;;;4.60;2.42;;;19.30;64.80;;;;;;5048311;28;20600;-39
2023/09/01 02:09:09;;;;;;;4.03;2.33;;;19.30;64.80;;;;;;5070613;28;20583;-39
2023/09/01 02:11:39;;;;;;;3.38;2.40;;;19.30;64.80;;;;;;5088667;28;20211;-39
2023/09/01 02:14:11;;;;;;;3.63;2.80;;;19.30;64.80;;;;;;5090544;28;20256;-40
2023/09/01 02:16:40;;;;;;;2.50;2.30;;;19.30;64.90;;;;;;5090094;28;20748;-39
2023/09/01 02:19:12;;;;;;;5.53;2.72;;;19.30;64.90;;;;;;5088371;28;20214;-39
2023/09/01 02:21:40;;;;;;;4.32;2.80;;;19.30;65.00;;;;;;5073961;28;20223;-38
2023/09/01 02:24:07;;;;;;;6.93;3.13;;;19.30;65.00;;;;;;5017249;28;20306;-38
2023/09/01 02:26:36;;;;;;;5.90;3.05;;;19.30;65.10;;;;;;5068014;28;20203;-39
2023/09/01 02:29:06;;;;;;;3.20;2.90;;;19.30;65.10;;;;;;5068221;28;20209;-39
2023/09/01 02:31:35;;;;;;;3.83;2.60;;;19.30;65.90;;;;;;5050101;28;20709;-39
2023/09/01 02:34:05;;;;;;;4.15;2.75;;;19.30;65.20;;;;;;5050116;28;20601;-39
2023/09/01 02:36:35;;;;;;;3.53;2.90;;;19.30;65.30;;;;;;5065695;28;20688;-39
2023/09/01 02:39:07;;;;;;;3.40;2.90;;;19.40;65.30;;;;;;5068005;28;20281;-38
2023/09/01 02:41:34;;;;;;;5.85;3.25;;;19.40;65.40;;;;;;5083194;28;20208;-39
2023/09/01 02:44:02;;;;;;;3.42;2.72;;;19.40;65.40;;;;;;5067643;28;20242;-39
2023/09/01 02:46:32;;;;;;;3.92;2.90;;;19.40;65.50;;;;;;5066399;28;20234;-39
2023/09/01 02:48:59;;;;;;;4.32;3.30;;;19.40;65.50;;;;;;5083030;28;20215;-38
2023/09/01 02:51:26;;;;;;;5.50;3.17;;;19.40;65.50;;;;;;5065334;28;20202;-40
2023/09/01 02:53:53;;;;;;;3.78;3.25;;;19.40;65.50;;;;;;5083054;28;20690;-40
2023/09/01 02:56:21;;;;;;;3.60;3.20;;;19.40;65.50;;;;;;5049573;28;20207;-39
2023/09/01 02:58:48;;;;;;;4.75;3.20;;;19.40;65.50;;;;;;5082480;28;20262;-39
2023/09/01 03:01:15;;;;;;;4.47;3.25;;;19.40;65.60;;;;;;5069360;28;20707;-29
2023/09/01 03:03:47;;;;;;;3.78;2.80;;;19.40;65.60;;;;;;5051662;28;20227;-30
2023/09/01 03:06:14;;;;;;;4.20;3.03;;;19.50;65.70;;;;;;5066831;28;20253;-29
2023/09/01 03:08:41;;;;;;;3.47;3.17;;;19.50;65.70;;;;;;5051211;28;20206;-30
2023/09/01 03:11:11;;;;;;;3.53;3.22;;;19.50;65.90;;;;;;5050666;28;20239;-29
2023/09/01 03:13:40;;;;;;;5.28;3.63;;;19.50;65.80;;;;;;5068856;28;20235;-29
2023/09/01 03:16:07;;;;;;;8.40;3.75;;;19.50;65.90;;;;;;5067673;28;20200;-30
2023/09/01 03:18:37;;;;;;;4.55;3.65;;;19.50;65.90;;;;;;5067257;28;20229;-29
2023/09/01 03:21:11;;;;;;;4.63;3.65;;;19.50;65.90;;;;;;5048429;28;20704;-30
2023/09/01 03:23:41;;;;;;;4.68;3.30;;;19.50;66.10;;;;;;5066706;28;20306;-29
2023/09/01 03:26:13;;;;;;;5.65;3.70;;;19.50;66.00;;;;;;5065433;28;20692;-30
2023/09/01 03:28:41;;;;;;;5.75;3.42;;;19.50;66.00;;;;;;5067035;28;20204;-30
2023/09/01 03:31:10;;;;;;;6.00;4.45;;;19.50;66.10;;;;;;5066426;28;20203;-29
2023/09/01 03:33:37;;;;;;;5.47;3.88;;;19.50;66.10;;;;;;5065667;28;20584;-29
2023/09/01 03:36:07;;;;;;;5.15;4.20;;;19.60;66.20;;;;;;5064828;28;20196;-30
2023/09/01 03:38:40;;;;;;;5.38;4.07;;;19.50;66.10;;;;;;5049840;28;20272;-30
2023/09/01 03:41:07;;;;;;;4.72;4.28;;;19.50;66.10;;;;;;5065265;28;20208;-29
2023/09/01 03:43:37;;;;;;;8.20;4.35;;;19.60;66.30;;;;;;5066734;28;20188;-29
2023/09/01 03:46:04;;;;;;;5.32;4.03;;;19.60;66.20;;;;;;5049032;28;20581;-30
2023/09/01 03:48:32;;;;;;;6.38;4.13;;;19.60;66.30;;;;;;5066647;28;20207;-29
2023/09/01 03:51:07;;;;;;;5.07;4.38;;;19.60;66.30;;;;;;5047936;28;20578;-30
2023/09/01 03:53:35;;;;;;;4.70;4.20;;;19.60;66.50;;;;;;5065386;28;20257;-29
2023/09/01 03:56:08;;;;;;;5.72;4.20;;;19.60;66.40;;;;;;5068653;28;20199;-30
2023/09/01 03:58:38;;;;;;;6.40;4.20;;;19.60;66.40;;;;;;5088440;28;20207;-29
2023/09/01 04:01:13;;;;;;;5.78;4.63;;;19.60;66.40;;;;;;5054814;28;20727;-29
2023/09/01 04:03:47;;;;;;;6.68;4.25;;;19.60;66.40;;;;;;5086914;28;20199;-30
2023/09/01 04:06:16;;;;;;;6.95;4.07;;;19.60;66.50;;;;;;5087659;28;20290;-29
2023/09/01 04:08:46;;;;;;;5.95;3.97;;;19.60;66.40;;;;;;5054541;28;20584;-30
2023/09/01 04:11:15;;;;;;;7.82;4.63;;;19.70;66.50;;;;;;5084985;28;20199;-29
2023/09/01 04:13:43;;;;;;;7.30;4.60;;;19.60;66.50;;;;;;5086300;28;20187;-30
2023/09/01 04:16:12;;;;;;;4.28;3.75;;;19.70;66.60;;;;;;5086420;28;20202;-30
2023/09/01 04:18:41;;;;;;;5.70;4.65;;;19.70;66.60;;;;;;5086816;28;20210;-29
2023/09/01 04:21:11;;;;;;;4.80;4.00;;;19.70;66.60;;;;;;5084517;28;20199;-31
2023/09/01 04:23:39;;;;;;;6.05;3.80;;;19.70;66.60;;;;;;5086329;28;20215;-30
2023/09/01 04:26:07;;;;;;;4.82;4.10;;;19.70;66.60;;;;;;5086354;28;20206;-30
2023/09/01 04:28:37;;;;;;;5.32;3.90;;;19.70;66.70;;;;;;5068798;28;20249;-30
2023/09/01 04:31:22;;;;;;;5.45;4.88;;;19.70;66.70;;;;;;5084855;28;20199;-30
2023/09/01 04:33:49;;;;;;;6.43;4.53;;;19.70;66.90;;;;;;5084978;28;20191;-29
2023/09/01 04:36:18;;;;;;;6.18;4.30;;;19.70;66.70;;;;;;5051348;28;20199;-29
2023/09/01 04:38:47;;;;;;;6.32;4.40;;;19.70;66.80;;;;;;5086384;28;20203;-29
2023/09/01 04:41:17;;;;;;;6.63;4.43;;;19.70;67.50;;;;;;5086284;28;20710;-30
2023/09/01 04:43:44;;;;;;;7.68;4.68;;;19.70;66.80;;;;;;5071143;28;20253;-30
2023/09/01 04:46:11;;;;;;;5.28;4.50;;;19.70;66.90;;;;;;5088840;28;20199;-29
2023/09/01 04:48:42;;;;;;;5.55;4.75;;;19.70;66.90;;;;;;5078142;28;20203;-30
2023/09/01 04:51:11;;;;;;;6.13;5.07;;;19.70;66.90;;;;;;5053141;28;20226;-29
2023/09/01 04:53:43;;;;;;;9.20;5.07;;;19.70;66.90;;;;;;5071220;28;20214;-30
2023/09/01 04:56:10;;;;;;;7.40;5.10;;;19.70;67.00;;;;;;5069539;28;20195;-30
2023/09/01 04:58:37;;;;;;;5.55;4.72;;;19.80;67.10;;;;;;5077649;28;20207;-30
2023/09/01 05:01:05;;;;;;;8.43;4.72;;;19.80;67.10;;;;;;5071262;28;20334;-30
2023/09/01 05:03:34;;;;;;;7.30;4.85;;;19.80;67.20;;;;;;5079118;28;20208;-29
2023/09/01 05:06:05;;;;;;;5.80;4.80;;;19.80;67.10;;;;;;5071471;28;20311;-29
2023/09/01 05:08:32;;;;;;;9.43;5.45;;;19.80;67.20;;;;;;5084313;28;20214;-29
2023/09/01 05:11:08;;;;;;;6.10;5.20;;;19.80;67.30;;;;;;5084542;28;20319;-30
2023/09/01 05:13:37;;;;;;;5.97;5.25;;;19.80;67.30;;;;;;5085321;28;20278;-30
2023/09/01 05:16:07;;;;;;;7.63;5.35;;;19.80;67.30;;;;;;5054911;28;20202;-29
2023/09/01 05:18:36;;;;;;;6.80;5.60;;;19.80;67.30;;;;;;5089456;28;20242;-30
2023/09/01 05:21:06;;;;;;;6.88;5.28;;;19.80;67.40;;;;;;5070935;28;20301;-30
2023/09/01 05:23:35;;;;;;;7.15;5.35;;;19.90;67.40;;;;;;5087706;28;20201;-30
2023/09/01 05:26:05;;;;;;;6.40;5.32;;;19.90;67.50;;;;;;5087783;28;20223;-29
2023/09/01 05:28:34;;;;;;;7.70;5.47;;;19.90;67.50;;;;;;5088299;28;20285;-30
2023/09/01 05:31:03;;;;;;;7.15;5.82;;;19.90;67.60;;;;;;5067228;28;20211;-41
2023/09/01 05:33:33;;;;;;;6.22;5.30;;;19.90;67.50;;;;;;5071913;28;20582;-41
2023/09/01 05:36:03;;;;;;;6.18;5.18;;;19.90;67.70;;;;;;5070245;28;20257;-41
2023/09/01 05:38:30;;;;;;;6.03;5.43;;;19.90;67.70;;;;;;5055467;28;20235;-41
2023/09/01 05:40:58;;;;;;;6.38;5.38;;;19.90;67.80;;;;;;5082116;28;20704;-40
2023/09/01 05:43:29;;;;;;;6.57;5.90;;;20.00;67.90;;;;;;5084710;28;20207;-40
2023/09/01 05:45:56;;;;;;;6.32;5.43;;;20.00;67.90;;;;;;5052135;28;20307;-41
2023/09/01 05:48:27;;;;;;;6.82;6.07;;;20.00;67.80;;;;;;5085853;28;20195;-40
2023/09/01 05:50:54;;;;;;;7.10;6.40;;;20.00;67.90;;;;;;5051477;28;20207;-41
2023/09/01 05:53:22;;;;;;;7.20;6.22;;;20.00;67.90;;;;;;5065480;28;20586;-40
2023/09/01 05:55:49;;;;;;;7.35;6.53;;;20.10;68.00;;;;;;5090666;28;20289;-41
2023/09/01 05:58:18;;;;;;;9.10;6.57;;;20.10;68.10;;;;;;5072402;28;20222;-40
2023/09/01 06:00:49;;;;;;;9.00;6.22;;;20.10;68.00;;;;;;5080410;28;20259;-40
2023/09/01 06:03:19;;;;;;;6.80;6.10;;;20.10;68.10;;;;;;5053310;28;20203;-40
2023/09/01 06:05:48;;;;;;;8.48;6.25;;;20.10;68.10;;;;;;5069724;28;20882;-40
2023/09/01 06:08:15;;;;;;;8.13;6.68;;;20.10;68.10;;;;;;5056159;28;20699;-41
2023/09/01 06:10:43;;;;;;;10.07;6.55;;;20.20;69.00;;;;;;5049495;28;20209;-41
2023/09/01 06:13:12;;;;;;;9.07;5.97;;;20.20;68.30;;;;;;5071820;28;20205;-41
2023/09/01 06:15:39;;;;;;;6.82;6.13;;;20.20;68.30;;;;;;5085361;28;20226;-41
2023/09/01 06:18:09;;;;;;;9.07;5.97;;;20.20;68.30;;;;;;5033286;28;20207;-41
2023/09/01 06:20:36;;;;;;;8.25;6.07;;;20.20;69.10;;;;;;5063736;28;20744;-41
2023/09/01 06:23:03;;;;;;;8.95;6.35;;;20.20;68.40;;;;;;5052908;28;20229;-41
2023/09/01 06:25:30;;;;;;;10.23;6.18;;;20.30;68.40;;;;;;5073444;28;20318;-42
2023/09/01 06:27:57;;;;;;;9.45;6.22;;;20.30;68.50;;;;;;5083801;28;20306;-42
2023/09/01 06:30:24;;;;;;;10.20;6.18;;;20.30;68.60;;;;;;5075955;28;20237;-41
2023/09/01 06:32:52;;;;;;;11.10;5.53;;;20.30;68.50;;;;;;5089937;28;20223;-41
2023/09/01 06:35:21;;;;;;;9.05;6.03;;;20.30;69.30;;;;;;5072139;28;20218;-42
2023/09/01 06:37:48;;;;;;;9.70;5.50;;;20.40;68.60;;;;;;5071999;28;20688;-42
2023/09/01 06:40:20;;;;;;;8.13;5.43;;;20.40;68.70;;;;;;5087865;28;20203;-42
2023/09/01 06:42:47;;;;;;;6.50;5.22;;;20.40;68.60;;;;;;5067590;28;20223;-43
2023/09/01 06:45:17;;;;;;;7.72;5.65;;;20.40;68.70;;;;;;5067072;28;20218;-43
2023/09/01 06:47:44;;;;;;;12.68;6.03;;;20.50;69.00;;;;;;5087555;28;20207;-42
2023/09/01 06:50:19;;;;;;;9.52;6.30;;;20.50;68.80;;;;;;5078937;28;20207;-43
2023/09/01 06:52:49;;;;;;;10.20;6.53;;;20.50;68.80;;;;;;5077787;28;20269;-43
2023/09/01 06:55:20;;;;;;;9.23;5.95;;;20.50;68.80;;;;;;5068189;28;20635;-42
2023/09/01 06:57:49;;;;;;;6.47;5.22;;;20.50;69.60;;;;;;5068588;28;20204;-42
2023/09/01 07:00:17;;;;;;;6.63;5.60;;;20.60;68.80;;;;;;5069371;28;20234;-42
2023/09/01 07:02:44;;;;;;;8.00;5.90;;;20.60;68.90;;;;;;5068108;28;21324;-42
2023/09/01 07:05:11;;;;;;;5.93;5.25;;;20.60;68.90;;;;;;5083504;28;20215;-42
2023/09/01 07:07:41;;;;;;;6.22;5.10;;;20.60;69.10;;;;;;5088315;28;20219;-42
2023/09/01 07:10:08;;;;;;;8.80;4.72;;;20.60;69.00;;;;;;5077232;28;20666;-42
2023/09/01 07:12:40;;;;;;;9.18;4.43;;;20.70;69.10;;;;;;5076940;28;20199;-42
2023/09/01 07:15:08;;;;;;;7.20;4.40;;;20.70;69.10;;;;;;5076746;28;20227;-42
2023/09/01 07:17:35;;;;;;;6.05;4.45;;;20.70;69.00;;;;;;5080891;28;20202;-42
2023/09/01 07:20:05;;;;;;;5.43;4.38;;;20.80;69.10;;;;;;5066640;28;20727;-41
2023/09/01 07:22:33;;;;;;;6.78;4.40;;;20.80;69.10;;;;;;5085338;28;20206;-41
2023/09/01 07:25:04;;;;;;;7.75;3.80;;;20.80;69.10;;;;;;5077894;28;20230;-41
2023/09/01 07:27:33;;;;;;;6.18;3.72;;;20.80;69.20;;;;;;5079327;28;20281;-42
2023/09/01 07:30:03;;;;;;;4.55;3.60;;;20.80;69.10;;;;;;5074186;28;20223;-41
2023/09/01 07:32:32;;;;;;;6.82;3.90;;;20.90;69.20;;;;;;5068139;28;20657;-44
2023/09/01 07:35:03;;;;;;;16.23;5.53;;;20.80;69.00;;;;;;5078905;28;20294;-42
2023/09/01 07:37:33;;;;;;;6.65;3.92;;;20.90;69.10;;;;;;5081544;28;20203;-41
2023/09/01 07:40:00;;;;;;;6.15;2.40;;;20.90;69.20;;;;;;5086717;28;20253;-38
2023/09/01 07:42:27;;;;;;;3.97;3.00;;;20.80;69.30;;;;;;5069940;28;20234;-39
2023/09/01 07:44:54;;;;;;;3.42;2.00;;;20.90;69.20;;;;;;5086376;28;20299;-39
2023/09/01 07:47:21;;;;;;;1.70;1.40;;;20.90;69.40;;;;;;5079749;28;20195;-40
2023/09/01 07:49:48;;;;;;;2.70;1.73;;;20.90;69.40;;;;;;5067449;28;20215;-40
2023/09/01 07:52:16;;;;;;;4.75;2.22;;;20.90;69.40;;;;;;5069574;28;20322;-40
2023/09/01 07:54:43;;;;;;;4.82;2.05;;;20.90;69.40;;;;;;5079007;28;20199;-31
2023/09/01 07:57:10;;;;;;;3.55;1.85;;;20.90;69.50;;;;;;5086224;28;20201;-30
2023/09/01 07:59:37;;;;;;;2.80;1.77;;;20.90;69.50;;;;;;5075391;28;20289;-30
2023/09/01 08:02:05;;;;;;;3.35;1.73;;;20.90;69.50;;;;;;5068676;28;20214;-30
2023/09/01 08:04:32;;;;;;;3.42;1.95;;;20.90;69.50;;;;;;5058801;28;20290;-30
2023/09/01 08:06:59;;;;;;;4.75;2.70;;;20.90;69.70;;;;;;5072113;28;20231;-30
2023/09/01 08:09:27;;;;;;;3.72;2.35;;;20.90;69.70;;;;;;5062432;28;20298;-30
2023/09/01 08:11:58;;;;;;;3.17;1.55;;;20.90;69.80;;;;;;5099096;28;20698;-30
2023/09/01 08:14:30;;;;;;;2.50;1.38;;;20.90;69.70;;;;;;5075896;28;20202;-30
2023/09/01 08:16:57;;;;;;;2.30;1.30;;;20.90;69.70;;;;;;5068124;28;20232;-29
2023/09/01 08:19:24;;;;;;;2.30;1.50;;;20.90;69.60;;;;;;5063550;28;20222;-30
2023/09/01 08:21:56;;;;;;;2.90;1.50;;;20.90;69.60;;;;;;5069158;28;20294;-30
2023/09/01 08:24:23;;;;;;;1.73;1.00;;;20.90;69.50;;;;;;5085598;28;20309;-31
2023/09/01 08:26:52;;;;;;;2.20;1.70;;;20.90;69.50;;;;;;5072858;28;20596;-31
2023/09/01 08:29:22;;;;;;;2.50;1.60;;;20.90;69.60;;;;;;5086377;28;20288;-31
2023/09/01 08:31:49;;;;;;;2.38;1.90;;;20.90;69.70;;;;;;5087302;28;20203;-31
2023/09/01 08:34:21;;;;;;;2.92;1.90;;;20.90;69.80;;;;;;5061483;28;20199;-31
2023/09/01 08:36:52;;;;;;;2.75;1.15;;;20.90;69.80;;;;;;5083505;28;20267;-31
2023/09/01 08:39:24;;;;;;;2.17;0.90;;;20.90;70.00;;;;;;5080268;28;20199;-32
2023/09/01 08:41:55;;;;;;;2.45;0.90;;;20.90;70.00;;;;;;5089758;28;20207;-31
2023/09/01 08:44:31;;;;;;;1.05;0.38;;;20.90;69.90;;;;;;5073841;28;20349;-31
2023/09/01 08:46:59;;;;;;;1.08;0.47;;;20.90;70.30;;;;;;5061495;28;21152;-31
2023/09/01 08:49:27;;;;;;;2.55;0.32;;;20.80;69.90;;;;;;5077787;28;20202;-31
2023/09/01 08:51:57;;;;;;;2.28;0.30;;;20.80;70.10;;;;;;5075915;28;20204;-30
2023/09/01 08:54:25;;;;;;;0.80;0.32;;;20.70;69.80;;;;;;5082086;28;20652;-30
2023/09/01 08:56:54;;;;;;;1.33;0.50;;;20.60;69.80;;;;;;5072774;28;20242;-30
2023/09/01 08:59:27;;;;;;;1.88;0.40;;;20.60;69.90;;;;;;5070562;28;20202;-30
2023/09/01 09:01:57;;;;;;;1.15;0.40;;;20.50;70.20;;;;;;5091002;28;20214;-30
2023/09/01 09:04:27;;;;;;;2.25;0.57;;;20.50;70.10;;;;;;5078508;28;20218;-30
2023/09/01 09:07:15;;;;;;;1.30;0.50;;;20.40;70.00;;;;;;5068792;28;20705;-30
2023/09/01 09:09:57;;;;;;;2.33;0.73;;;20.30;70.60;;;;;;5050730;28;20203;-30
2023/09/01 09:12:43;;;;;;;2.00;0.40;;;20.30;70.80;;;;;;5071155;28;20239;-30
2023/09/01 09:15:17;;;;;;;2.15;0.40;;;20.30;70.80;;;;;;5069811;28;20207;-30
2023/09/01 09:17:48;;;;;;;0.80;0.38;;;20.20;70.40;;;;;;5085189;28;20206;-30
2023/09/01 09:20:19;;;;;;;1.60;0.45;;;20.20;70.50;;;;;;5038460;28;20839;-30
2023/09/01 09:22:51;;;;;;;2.13;0.70;;;20.20;70.40;;;;;;5078438;28;20219;-30
2023/09/01 09:25:31;;;;;;;0.57;0.40;;;20.20;70.70;;;;;;5070554;28;20293;-42
2023/09/01 09:28:17;;;;;;;2.63;0.68;;;20.20;71.30;;;;;;5070661;28;20213;-42
2023/09/01 09:30:52;;;;;;;1.13;0.63;;;20.20;71.00;;;;;;5071348;28;20226;-42
2023/09/01 09:33:28;;;;;;;0.68;0.40;;;20.20;71.10;;;;;;5066665;28;20198;-42
2023/09/01 09:35:58;;;;;;;3.90;0.60;;;20.30;71.10;;;;;;5079908;28;20206;-43
2023/09/01 09:38:41;;;;;;;1.23;0.60;;;20.30;71.30;;;;;;5074598;28;20688;-42
2023/09/01 09:41:09;;;;;;;3.25;0.70;;;20.40;71.80;;;;;;5069251;28;20207;-42
2023/09/01 09:43:44;;;;;;;2.30;0.40;;;20.40;71.50;;;;;;5069913;28;20203;-42
2023/09/01 09:46:13;;;;;;;2.63;0.50;;;20.50;71.70;;;;;;5084787;28;20329;-42
2023/09/01 09:48:45;;;;;;;1.48;0.55;;;20.50;71.60;;;;;;5076820;28;20215;-42
2023/09/01 09:51:18;;;;;;;1.42;0.30;;;20.60;71.60;;;;;;5053776;28;20198;-41
2023/09/01 09:53:50;;;;;;;0.82;0.40;;;20.60;71.60;;;;;;5067826;28;20231;-41
2023/09/01 09:56:20;;;;;;;6.15;0.82;;;20.60;71.50;;;;;;5073505;28;20744;-41
2023/09/01 09:58:53;;;;;;;2.67;0.60;;;20.70;71.50;;;;;;5064002;28;20211;-40
2023/09/01 10:01:22;;;;;;;1.27;0.45;;;20.70;71.40;;;;;;5076029;28;20238;-41
2023/09/01 10:03:50;;;;;;;0.50;0.50;;;20.70;71.50;;;;;;5060767;28;20203;-41
2023/09/01 10:06:19;;;;;;;0.47;0.47;;;20.70;71.60;;;;;;5078013;28;20219;-40
2023/09/01 10:08:47;;;;;;;0.50;0.45;;;20.80;71.50;;;;;;5076053;28;20211;-40
2023/09/01 10:11:16;;;;;;;0.40;0.40;;;20.80;71.30;;;;;;5082977;28;20640;-40
2023/09/01 10:13:47;;;;;;;0.35;0.20;;;20.80;71.50;;;;;;5084753;28;20290;-40
2023/09/01 10:16:18;;;;;;;0.50;0.30;;;20.80;71.40;;;;;;5062391;28;20657;-40
2023/09/01 10:18:49;;;;;;;0.40;0.20;;;20.80;71.20;;;;;;5069159;28;20211;-40
2023/09/01 10:21:16;;;;;;;1.40;0.70;;;20.80;71.20;;;;;;5084196;28;20199;-40
2023/09/01 10:23:44;;;;;;;0.95;0.40;;;20.80;71.20;;;;;;5076946;28;20306;-40
2023/09/01 10:26:19;;;;;;;1.10;0.40;;;20.80;71.20;;;;;;5077060;28;20716;-40
2023/09/01 10:29:03;;;;;;;1.40;0.40;;;20.70;71.20;;;;;;5083611;28;20214;-40
2023/09/01 10:31:36;;;;;;;0.77;0.40;;;20.80;71.60;;;;;;5082706;28;20215;-40
2023/09/01 10:34:07;;;;;;;1.20;1.10;;;20.80;71.50;;;;;;5087710;28;20201;-39
2023/09/01 10:36:39;;;;;;;2.05;1.30;;;20.80;71.70;;;;;;5082680;28;20712;-41
2023/09/01 10:39:19;;;;;;;0.73;0.30;;;20.80;71.80;;;;;;5074908;28;20199;-41
2023/09/01 10:41:54;;;;;;;0.85;0.40;;;20.80;71.80;;;;;;5083755;28;21072;-41
2023/09/01 10:44:21;;;;;;;1.35;0.32;;;20.90;71.70;;;;;;5072661;28;20207;-41
2023/09/01 10:46:51;;;;;;;0.40;0.40;;;20.80;71.50;;;;;;5084808;28;20698;-41
2023/09/01 10:49:56;;;;;;;1.42;0.50;;;20.90;71.80;;;;;;5065316;28;20211;-41
2023/09/01 10:52:23;;;;;;;0.75;0.30;;;20.90;72.10;;;;;;5058494;28;20293;-41
2023/09/01 10:55:00;;;;;;;1.83;0.98;;;20.90;72.10;;;;;;5070404;28;20628;-40
2023/09/01 10:57:41;;;;;;;1.05;0.50;;;21.00;72.10;;;;;;5076597;28;20205;-40
2023/09/01 11:00:27;;;;;;;1.45;0.47;;;21.00;72.40;;;;;;5067981;28;20338;-41
2023/09/01 11:03:28;;;;;;;0.77;0.45;;;21.10;72.60;;;;;;5082256;28;20291;-40
2023/09/01 11:06:00;;;;;;;0.70;0.38;;;21.10;72.30;;;;;;5067544;28;20246;-40
2023/09/01 11:08:32;;;;;;;0.43;0.30;;;21.20;72.00;;;;;;5053670;28;20211;-39
2023/09/01 11:11:09;;;;;;;0.70;0.30;;;21.20;71.90;;;;;;5072100;28;20205;-39
2023/09/01 11:13:36;;;;;;;0.30;0.30;;;21.20;72.10;;;;;;5067193;28;20237;-39
2023/09/01 11:16:08;;;;;;;0.57;0.10;;;21.30;72.10;;;;;;5068021;28;20266;-40
2023/09/01 11:18:38;;;;;;;1.95;0.20;;;21.30;71.90;;;;;;5067821;28;20250;-40
2023/09/01 11:21:08;;;;;;;0.30;0.30;;;21.40;72.00;;;;;;5072927;28;20203;-39
2023/09/01 11:23:35;;;;;;;1.15;0.20;;;21.40;72.00;;;;;;5084485;28;20198;-39
2023/09/01 11:26:09;;;;;;;0.20;0.20;;;21.40;72.00;;;;;;5086863;28;20250;-38
2023/09/01 11:28:39;;;;;;;0.40;0.28;;;21.50;71.90;;;;;;5086851;28;20193;-39
2023/09/01 11:31:07;;;;;;;0.95;0.40;;;21.50;72.00;;;;;;5077781;28;20301;-38
2023/09/01 11:33:38;;;;;;;1.02;0.30;;;21.50;71.90;;;;;;5065100;28;20211;-38
2023/09/01 11:36:10;;;;;;;0.30;0.30;;;21.50;71.70;;;;;;5069425;28;20250;-39
2023/09/01 11:38:43;;;;;;;0.73;0.30;;;21.60;71.50;;;;;;5078095;28;20299;-38
2023/09/01 11:41:18;;;;;;;1.50;0.30;;;21.60;71.60;;;;;;5078985;28;20222;-38
2023/09/01 11:43:47;;;;;;;1.30;0.70;;;21.60;71.50;;;;;;5081175;28;20562;-38
2023/09/01 11:46:15;;;;;;;1.55;0.80;;;21.60;71.70;;;;;;5069618;28;20230;-38
2023/09/01 11:48:42;;;;;;;0.80;0.52;;;21.60;72.00;;;;;;5086590;28;20268;-38
2023/09/01 11:51:09;;;;;;;1.30;0.70;;;21.60;71.80;;;;;;5077908;28;20265;-38
2023/09/01 11:53:37;;;;;;;1.10;0.65;;;21.70;72.20;;;;;;5076622;28;20231;-38
2023/09/01 11:56:22;;;;;;;2.63;0.70;;;21.70;71.90;;;;;;5067311;28;20660;-38
2023/09/01 11:58:55;;;;;;;1.85;0.55;;;21.70;72.10;;;;;;5050272;28;20223;-38
2023/09/01 12:01:24;;;;;;;1.48;0.82;;;21.70;72.00;;;;;;5069750;28;20780;-38
2023/09/01 12:04:06;;;;;;;0.93;0.80;;;21.80;72.10;;;;;;5066292;28;20226;-38
2023/09/01 12:06:49;;;;;;;1.35;1.10;;;21.90;72.30;;;;;;5067309;28;20218;-38
2023/09/01 12:09:18;;;;;;;1.83;0.95;;;21.90;72.00;;;;;;5086267;28;20306;-38
2023/09/01 12:11:52;;;;;;;3.85;1.10;;;21.90;71.70;;;;;;5085044;28;20223;-38
2023/09/01 12:14:30;;;;;;;1.42;0.93;;;21.90;71.60;;;;;;5072215;28;20231;-38
2023/09/01 12:16:58;;;;;;;2.42;2.22;;;21.90;71.80;;;;;;5085808;28;20308;-38
2023/09/01 12:19:43;;;;;;;4.97;2.10;;;21.90;71.50;;;;;;5067819;28;20260;-38
2023/09/01 12:22:11;;;;;;;1.67;1.58;;;21.90;71.80;;;;;;5074498;28;20207;-38
2023/09/01 12:24:38;;;;;;;2.05;1.40;;;21.90;71.80;;;;;;5077156;28;20315;-37
2023/09/01 12:27:05;;;;;;;3.15;1.45;;;22.00;71.90;;;;;;5067397;28;20246;-38
2023/09/01 12:29:33;;;;;;;2.50;1.85;;;21.90;71.90;;;;;;5080123;28;20582;-38
2023/09/01 12:32:02;;;;;;;2.20;2.00;;;21.90;71.90;;;;;;5077579;28;20548;-38
2023/09/01 12:34:29;;;;;;;1.77;1.67;;;21.90;71.90;;;;;;5069443;28;20628;-37
2023/09/01 12:36:56;;;;;;;1.92;1.25;;;22.00;72.10;;;;;;5060403;28;20555;-38
2023/09/01 12:39:24;;;;;;;1.60;1.50;;;22.00;72.00;;;;;;5073977;28;20300;-37
2023/09/01 12:41:53;;;;;;;4.72;2.38;;;22.00;72.00;;;;;;5061786;28;20309;-37
2023/09/01 12:44:20;;;;;;;6.10;5.05;;;22.10;72.10;;;;;;5066460;28;20227;-37
2023/09/01 12:46:50;;;;;;;3.05;2.67;;;22.10;72.00;;;;;;5066552;28;20263;-37
2023/09/01 12:49:17;;;;;;;5.38;3.50;;;22.10;72.10;;;;;;5066445;28;20217;-37
2023/09/01 12:51:47;;;;;;;6.85;2.80;;;22.10;72.20;;;;;;5052503;28;20199;-30
2023/09/01 12:54:14;;;;;;;1.80;1.70;;;22.20;72.20;;;;;;5078132;28;20681;-30
2023/09/01 12:56:43;;;;;;;2.50;2.30;;;22.20;72.00;;;;;;5074624;28;20200;-30
2023/09/01 12:59:15;;;;;;;2.60;1.98;;;22.20;71.90;;;;;;5074181;28;20211;-30
2023/09/01 13:01:47;;;;;;;2.63;2.42;;;22.20;72.00;;;;;;5080685;28;20235;-30
2023/09/01 13:04:14;;;;;;;2.88;2.40;;;22.20;72.00;;;;;;5059130;28;20595;-29